Time;durP1;ratioP1;P1;durP2;ratioP2;P2;SDS_P1;SDS_P2;PMS_P1;PMS_P2;Temp;Humidity;BMP_temperature;BMP_pressure;BME280_temperature;BME280_humidity;BME280_pressure;Samples;Min_cycle;Max_cycle;Signal;HPM_P1;HPM_P2
2023/12/17 00:00:25;;;;;;;;;;;1.00;99.90;;;;;;20903877;28;19954;-75
2023/12/17 00:10:26;;;;;;;;;;;0.90;99.90;;;;;;20903529;28;19913;-75
2023/12/17 00:20:26;;;;;;;;;;;0.80;99.90;;;;;;20900654;28;19999;-75
2023/12/17 00:30:27;;;;;;;;;;;0.80;99.90;;;;;;20916532;28;19935;-75
2023/12/17 00:40:28;;;;;;;;;;;0.70;99.90;;;;;;20918693;28;19916;-75
2023/12/17 00:50:28;;;;;;;;;;;0.80;99.90;;;;;;20910529;28;20460;-75
2023/12/17 01:00:29;;;;;;;;;;;0.70;99.90;;;;;;20907548;28;19912;-74
2023/12/17 01:10:30;;;;;;;;;;;0.70;99.90;;;;;;20910226;28;19970;-74
2023/12/17 01:20:30;;;;;;;;;;;0.60;99.90;;;;;;20912764;28;19917;-76
2023/12/17 01:30:31;;;;;;;;;;;0.70;99.90;;;;;;20905158;28;19913;-75
2023/12/17 01:40:32;;;;;;;;;;;0.70;99.90;;;;;;20907959;28;20588;-75
2023/12/17 01:50:33;;;;;;;;;;;0.60;99.90;;;;;;20908145;28;19920;-75
2023/12/17 02:00:36;;;;;;;;;;;0.50;99.90;;;;;;20905519;28;19909;-74
2023/12/17 02:10:37;;;;;;;;;;;0.60;99.90;;;;;;20881350;28;19917;-75
2023/12/17 02:20:39;;;;;;;;;;;0.50;99.90;;;;;;20892595;28;20440;-75
2023/12/17 02:30:39;;;;;;;;;;;0.60;99.90;;;;;;20909532;28;20008;-75
2023/12/17 02:40:41;;;;;;;;;;;0.60;99.90;;;;;;20908529;28;20402;-75
2023/12/17 02:50:42;;;;;;;;;;;0.60;99.90;;;;;;20884139;28;19913;-76
2023/12/17 03:00:42;;;;;;;;;;;0.60;99.90;;;;;;20901361;28;20356;-76
2023/12/17 03:10:43;;;;;;;;;;;0.60;99.90;;;;;;20901208;28;20280;-75
2023/12/17 03:20:44;;;;;;;;;;;0.60;99.90;;;;;;20899986;28;19952;-74
2023/12/17 03:30:45;;;;;;;;;;;0.50;99.90;;;;;;20892882;28;19912;-74
2023/12/17 03:40:45;;;;;;;;;;;0.60;99.90;;;;;;20865662;28;19913;-75
2023/12/17 03:50:46;;;;;;;;;;;0.50;99.90;;;;;;20898538;28;19959;-75
2023/12/17 04:00:47;;;;;;;;;;;0.50;99.90;;;;;;20867905;28;19951;-76
2023/12/17 04:10:47;;;;;;;;;;;0.20;99.90;;;;;;20897499;28;19913;-76
2023/12/17 04:20:48;;;;;;;;;;;0.20;99.90;;;;;;20895715;28;19950;-75
2023/12/17 04:30:48;;;;;;;;;;;0.10;99.90;;;;;;20897501;28;19921;-76
2023/12/17 04:40:49;;;;;;;;;;;0.10;99.90;;;;;;20895071;28;19920;-75
2023/12/17 04:50:50;;;;;;;;;;;0.10;99.90;;;;;;20899168;28;19913;-77
2023/12/17 05:00:51;;;;;;;;;;;0.10;99.90;;;;;;20896068;28;19908;-75
2023/12/17 05:10:51;;;;;;;;;;;0.10;99.90;;;;;;20905410;28;19949;-76
2023/12/17 05:20:52;;;;;;;;;;;0.20;99.90;;;;;;20908079;28;19908;-75
2023/12/17 05:30:53;;;;;;;;;;;0.20;99.90;;;;;;20909353;28;19913;-74
2023/12/17 05:40:54;;;;;;;;;;;0.20;99.90;;;;;;20909660;28;19912;-75
2023/12/17 05:50:54;;;;;;;;;;;0.20;99.90;;;;;;20884440;28;19916;-76
2023/12/17 06:00:56;;;;;;;;;;;0.20;99.90;;;;;;20908863;28;20007;-75
2023/12/17 06:10:56;;;;;;;;;;;0.20;99.90;;;;;;20906433;28;19913;-74
2023/12/17 06:20:57;;;;;;;;;;;0.30;99.90;;;;;;20907539;28;20289;-75
2023/12/17 06:30:58;;;;;;;;;;;0.20;99.90;;;;;;20909882;28;19939;-76
2023/12/17 06:40:58;;;;;;;;;;;0.20;99.90;;;;;;20907726;28;20385;-75
2023/12/17 06:51:03;;;;;;;;;;;0.20;99.90;;;;;;20908249;28;20343;-75
2023/12/17 07:01:03;;;;;;;;;;;0.20;99.90;;;;;;20907752;28;19909;-75
2023/12/17 07:11:04;;;;;;;;;;;0.20;99.90;;;;;;20907220;28;19913;-75
2023/12/17 07:21:05;;;;;;;;;;;0.40;99.90;;;;;;20904712;28;20027;-76
2023/12/17 07:31:05;;;;;;;;;;;0.40;99.90;;;;;;20914941;28;19917;-76
2023/12/17 07:41:06;;;;;;;;;;;0.30;99.90;;;;;;20883344;28;19912;-75
2023/12/17 07:51:07;;;;;;;;;;;0.30;99.90;;;;;;20893656;28;20090;-76
2023/12/17 08:01:09;;;;;;;;;;;0.20;99.90;;;;;;20886056;28;19951;-75
2023/12/17 08:11:12;;;;;;;;;;;0.20;99.90;;;;;;20898815;28;20392;-74
2023/12/17 08:21:13;;;;;;;;;;;0.20;99.90;;;;;;20899302;28;19936;-76
2023/12/17 08:31:14;;;;;;;;;;;0.30;99.90;;;;;;20894823;28;19913;-75
2023/12/17 08:41:15;;;;;;;;;;;0.30;99.90;;;;;;20898991;28;20432;-76
2023/12/17 08:51:16;;;;;;;;;;;0.20;99.90;;;;;;20895675;28;19913;-72
2023/12/17 09:01:17;;;;;;;;;;;0.30;99.90;;;;;;20915877;28;20459;-75
2023/12/17 09:11:18;;;;;;;;;;;0.30;99.90;;;;;;20906673;28;19912;-74
2023/12/17 09:21:18;;;;;;;;;;;0.40;99.90;;;;;;20901253;28;19913;-74
2023/12/17 09:31:19;;;;;;;;;;;0.40;99.90;;;;;;20902541;28;20693;-76
2023/12/17 09:41:20;;;;;;;;;;;0.50;99.90;;;;;;20904024;28;19979;-76
2023/12/17 09:51:23;;;;;;;;;;;0.60;99.90;;;;;;20898894;28;19966;-74
2023/12/17 10:01:24;;;;;;;;;;;0.70;99.90;;;;;;20907804;28;19995;-76
2023/12/17 10:11:26;;;;;;;;;;;0.70;99.90;;;;;;20907391;28;20442;-75
2023/12/17 10:21:27;;;;;;;;;;;0.70;99.90;;;;;;20906170;28;19909;-76
2023/12/17 10:31:28;;;;;;;;;;;0.70;99.90;;;;;;20909635;28;19965;-75
2023/12/17 10:41:29;;;;;;;;;;;0.80;99.90;;;;;;20883626;28;19915;-75
2023/12/17 10:51:32;;;;;;;;;;;1.00;99.90;;;;;;20903088;28;20381;-75
2023/12/17 11:01:33;;;;;;;;;;;1.00;99.90;;;;;;20898545;28;20293;-76
2023/12/17 11:11:34;;;;;;;;;;;1.10;99.90;;;;;;20908694;28;19951;-74
2023/12/17 11:21:35;;;;;;;;;;;1.10;99.90;;;;;;20903852;28;20336;-75
2023/12/17 11:31:36;;;;;;;;;;;1.10;99.90;;;;;;20884567;28;20003;-74
2023/12/17 11:41:37;;;;;;;;;;;1.10;99.90;;;;;;20899204;28;19959;-75
2023/12/17 11:51:37;;;;;;;;;;;1.10;99.90;;;;;;20904986;28;19920;-76
2023/12/17 12:01:38;;;;;;;;;;;1.30;99.90;;;;;;20901476;28;19908;-76
2023/12/17 12:11:39;;;;;;;;;;;1.30;99.90;;;;;;20898201;28;19916;-76
2023/12/17 12:21:39;;;;;;;;;;;1.40;99.90;;;;;;20916325;28;19909;-76
2023/12/17 12:31:49;;;;;;;;;;;1.50;99.90;;;;;;20897737;28;19958;-75
2023/12/17 12:41:50;;;;;;;;;;;1.60;99.90;;;;;;20909828;28;19916;-76
2023/12/17 12:51:50;;;;;;;;;;;1.60;99.90;;;;;;20916416;28;19927;-76
2023/12/17 13:01:54;;;;;;;;;;;1.70;99.90;;;;;;20914027;28;19908;-75
2023/12/17 13:11:55;;;;;;;;;;;1.60;99.90;;;;;;20909613;28;19920;-76
2023/12/17 13:21:56;;;;;;;;;;;1.80;99.90;;;;;;20910246;28;19951;-75
2023/12/17 13:31:56;;;;;;;;;;;1.80;99.90;;;;;;20911320;28;19913;-75
2023/12/17 13:41:57;;;;;;;;;;;1.90;99.90;;;;;;20915858;28;19919;-75
2023/12/17 13:51:57;;;;;;;;;;;2.00;99.90;;;;;;20906867;28;19913;-74
2023/12/17 14:01:58;;;;;;;;;;;2.10;99.90;;;;;;20905114;28;19915;-76
2023/12/17 14:11:59;;;;;;;;;;;1.80;99.90;;;;;;20880532;28;19921;-75
2023/12/17 14:21:59;;;;;;;;;;;1.90;99.90;;;;;;20893363;28;20500;-75
2023/12/17 14:32:02;;;;;;;;;;;1.90;99.90;;;;;;20896997;28;19913;-76
2023/12/17 14:42:03;;;;;;;;;;;2.00;99.90;;;;;;20899005;28;19908;-75
2023/12/17 14:52:04;;;;;;;;;;;1.90;99.90;;;;;;20903680;28;19927;-75
2023/12/17 15:02:05;;;;;;;;;;;2.00;99.90;;;;;;20880457;28;19908;-75
2023/12/17 15:12:06;;;;;;;;;;;2.10;99.90;;;;;;20895023;28;19917;-75
2023/12/17 15:22:07;;;;;;;;;;;1.90;99.90;;;;;;20881129;28;19909;-75
2023/12/17 15:32:07;;;;;;;;;;;1.80;99.90;;;;;;20865046;28;19924;-75
2023/12/17 15:42:08;;;;;;;;;;;1.80;99.90;;;;;;20895161;28;20480;-76
2023/12/17 15:52:09;;;;;;;;;;;1.80;99.90;;;;;;20881998;28;19928;-74
2023/12/17 16:02:10;;;;;;;;;;;1.70;99.90;;;;;;20893374;28;20688;-76
2023/12/17 16:12:10;;;;;;;;;;;1.70;99.90;;;;;;20897484;28;19916;-77
2023/12/17 16:22:11;;;;;;;;;;;1.70;99.90;;;;;;20878505;28;19944;-76
2023/12/17 16:32:12;;;;;;;;;;;1.80;99.90;;;;;;20884836;28;20436;-77
2023/12/17 16:42:12;;;;;;;;;;;1.70;99.90;;;;;;20889097;28;19912;-76
2023/12/17 16:52:13;;;;;;;;;;;1.80;99.90;;;;;;20878068;28;20346;-77
2023/12/17 17:02:13;;;;;;;;;;;1.70;99.90;;;;;;20901753;28;19923;-77
2023/12/17 17:12:14;;;;;;;;;;;1.70;99.90;;;;;;20892267;28;19919;-77
2023/12/17 17:22:15;;;;;;;;;;;1.60;99.90;;;;;;20909476;28;19909;-76
2023/12/17 17:32:16;;;;;;;;;;;1.70;99.90;;;;;;20929671;28;20003;-78
2023/12/17 17:42:16;;;;;;;;;;;1.60;99.90;;;;;;20924249;28;19962;-76
2023/12/17 17:52:19;;;;;;;;;;;1.60;99.90;;;;;;20933702;28;19926;-78
2023/12/17 18:02:19;;;;;;;;;;;1.60;99.90;;;;;;20940578;28;19980;-79
2023/12/17 18:12:20;;;;;;;;;;;1.50;99.90;;;;;;20918031;28;19936;-79
2023/12/17 18:22:21;;;;;;;;;;;1.60;99.90;;;;;;20930695;28;19943;-78
2023/12/17 18:32:22;;;;;;;;;;;1.50;99.90;;;;;;20926863;28;19913;-79
2023/12/17 18:42:23;;;;;;;;;;;1.40;99.90;;;;;;20923348;28;19962;-78
2023/12/17 18:52:23;;;;;;;;;;;1.40;99.90;;;;;;20922322;28;20403;-79
2023/12/17 19:02:25;;;;;;;;;;;1.50;99.90;;;;;;20928898;28;19916;-79
2023/12/17 19:12:25;;;;;;;;;;;1.60;99.90;;;;;;20916081;28;19912;-80
2023/12/17 19:22:26;;;;;;;;;;;1.60;99.90;;;;;;20924595;28;19916;-80
2023/12/17 19:32:26;;;;;;;;;;;1.60;99.90;;;;;;20897416;28;19947;-80
2023/12/17 19:42:28;;;;;;;;;;;1.60;99.90;;;;;;20916765;28;20096;-79
2023/12/17 19:52:29;;;;;;;;;;;1.60;99.90;;;;;;20912677;28;19912;-79
2023/12/17 20:02:30;;;;;;;;;;;1.60;99.90;;;;;;20928089;28;19913;-80
2023/12/17 20:12:31;;;;;;;;;;;1.60;99.90;;;;;;20901230;28;19912;-79
2023/12/17 20:22:32;;;;;;;;;;;1.50;99.90;;;;;;20893169;28;19908;-79
2023/12/17 20:32:33;;;;;;;;;;;1.50;99.90;;;;;;20905433;28;19919;-77
2023/12/17 20:42:33;;;;;;;;;;;1.50;99.90;;;;;;20926743;28;19924;-80
2023/12/17 20:52:34;;;;;;;;;;;1.50;99.90;;;;;;20960035;28;19912;-80
2023/12/17 21:02:36;;;;;;;;;;;1.50;99.90;;;;;;20957142;28;19909;-80
2023/12/17 21:12:37;;;;;;;;;;;1.60;99.90;;;;;;20945446;28;19919;-82
2023/12/17 21:22:37;;;;;;;;;;;1.50;99.90;;;;;;20926937;28;19909;-78
2023/12/17 21:32:38;;;;;;;;;;;1.40;99.90;;;;;;20921434;28;19912;-77
2023/12/17 21:42:39;;;;;;;;;;;1.40;99.90;;;;;;20897195;28;20343;-78
2023/12/17 21:52:39;;;;;;;;;;;1.30;99.90;;;;;;20910488;28;19939;-80
2023/12/17 22:02:40;;;;;;;;;;;1.40;99.90;;;;;;20937628;28;19913;-80
2023/12/17 22:12:41;;;;;;;;;;;1.30;99.90;;;;;;20941467;28;19931;-78
2023/12/17 22:22:42;;;;;;;;;;;1.40;99.90;;;;;;20941245;28;19908;-80
2023/12/17 22:32:43;;;;;;;;;;;1.30;99.90;;;;;;20923193;28;19917;-79
2023/12/17 22:42:43;;;;;;;;;;;1.30;99.90;;;;;;20912859;28;19916;-79
2023/12/17 22:52:44;;;;;;;;;;;1.40;99.90;;;;;;20939281;28;19919;-80
2023/12/17 23:02:46;;;;;;;;;;;1.30;99.90;;;;;;20940569;28;19920;-80
2023/12/17 23:12:47;;;;;;;;;;;1.40;99.90;;;;;;20936001;28;19919;-78
2023/12/17 23:22:47;;;;;;;;;;;1.40;99.90;;;;;;20915862;28;19912;-77
2023/12/17 23:32:48;;;;;;;;;;;1.50;99.90;;;;;;20912858;28;19970;-79
2023/12/17 23:42:48;;;;;;;;;;;1.50;99.90;;;;;;20914006;28;19946;-79
2023/12/17 23:52:49;;;;;;;;;;;1.50;99.90;;;;;;20930617;28;19913;-79
